Time;durP1;ratioP1;P1;durP2;ratioP2;P2;SDS_P1;SDS_P2;PMS_P1;PMS_P2;Temp;Humidity;BMP_temperature;BMP_pressure;BME280_temperature;BME280_humidity;BME280_pressure;Samples;Min_cycle;Max_cycle;Signal;HPM_P1;HPM_P2
2024/03/27 00:00:29;;;;;;;2.50;2.30;;;13.00;94.20;;;;;;4976673;28;21046;-34
2024/03/27 00:02:55;;;;;;;3.10;2.60;;;13.00;94.30;;;;;;4977989;28;20440;-33
2024/03/27 00:05:24;;;;;;;2.97;2.40;;;13.00;94.30;;;;;;4977957;28;21285;-36
2024/03/27 00:07:50;;;;;;;4.03;2.17;;;13.00;94.30;;;;;;4978357;28;20464;-35
2024/03/27 00:10:16;;;;;;;3.63;2.40;;;13.00;94.20;;;;;;4979703;28;20430;-34
2024/03/27 00:12:44;;;;;;;3.10;2.40;;;13.00;94.20;;;;;;4961623;28;20560;-36
2024/03/27 00:15:13;;;;;;;2.70;2.50;;;13.00;94.20;;;;;;4977621;28;20831;-37
2024/03/27 00:17:39;;;;;;;3.17;2.17;;;13.00;94.20;;;;;;4979819;28;20446;-36
2024/03/27 00:20:08;;;;;;;2.40;2.20;;;13.00;94.20;;;;;;4979884;28;21323;-37
2024/03/27 00:22:34;;;;;;;3.57;2.83;;;13.00;94.30;;;;;;4978119;28;20429;-34
2024/03/27 00:25:00;;;;;;;3.40;2.40;;;13.00;94.10;;;;;;4961109;28;20933;-32
2024/03/27 00:27:26;;;;;;;2.23;2.03;;;13.00;94.10;;;;;;4961121;28;20563;-34
2024/03/27 00:29:55;;;;;;;2.40;2.20;;;13.00;94.20;;;;;;4978547;28;20437;-36
2024/03/27 00:32:21;;;;;;;3.77;2.63;;;13.00;94.20;;;;;;4978495;28;20437;-30
2024/03/27 00:34:47;;;;;;;4.03;2.23;;;13.00;94.30;;;;;;4977982;28;21248;-32
2024/03/27 00:37:16;;;;;;;3.60;2.70;;;12.90;94.00;;;;;;4978728;28;20559;-32
2024/03/27 00:39:42;;;;;;;2.97;2.30;;;12.90;93.90;;;;;;4974042;28;20422;-31
2024/03/27 00:42:08;;;;;;;4.00;2.50;;;12.90;93.90;;;;;;4977098;28;21465;-31
2024/03/27 00:44:36;;;;;;;2.20;2.00;;;12.90;93.80;;;;;;4976519;28;20453;-35
2024/03/27 00:47:03;;;;;;;2.90;2.40;;;12.90;93.60;;;;;;4976985;28;20437;-36
2024/03/27 00:49:31;;;;;;;2.50;1.93;;;12.90;93.50;;;;;;4975215;28;21011;-33
2024/03/27 00:51:57;;;;;;;2.97;2.73;;;12.90;93.40;;;;;;4978291;28;20422;-35
2024/03/27 00:54:25;;;;;;;3.20;2.13;;;12.90;93.40;;;;;;4978059;28;20472;-34
2024/03/27 00:56:52;;;;;;;2.20;1.93;;;12.90;93.50;;;;;;4978442;28;20461;-33
2024/03/27 00:59:18;;;;;;;3.10;2.17;;;12.90;93.60;;;;;;4978457;28;20445;-35
2024/03/27 01:01:44;;;;;;;3.20;2.20;;;12.90;93.70;;;;;;4978675;28;20417;-34
2024/03/27 01:04:10;;;;;;;2.90;1.90;;;12.90;93.70;;;;;;4977643;28;21245;-32
2024/03/27 01:06:36;;;;;;;2.23;2.03;;;12.90;93.80;;;;;;4979107;28;20440;-33
2024/03/27 01:09:02;;;;;;;3.73;2.80;;;12.90;93.90;;;;;;4976839;28;20445;-35
2024/03/27 01:11:29;;;;;;;2.10;1.90;;;12.90;93.80;;;;;;4961574;28;20438;-33
2024/03/27 01:13:55;;;;;;;3.27;2.60;;;12.80;93.80;;;;;;4978048;28;20487;-34
2024/03/27 01:16:24;;;;;;;2.67;2.43;;;12.80;93.70;;;;;;4974185;28;20433;-35
2024/03/27 01:18:50;;;;;;;2.50;2.20;;;12.80;93.60;;;;;;4977452;28;20449;-30
2024/03/27 01:21:18;;;;;;;4.20;2.97;;;12.80;93.70;;;;;;4977169;28;20433;-33
2024/03/27 01:23:44;;;;;;;3.00;2.60;;;12.80;93.80;;;;;;4960312;28;20440;-33
2024/03/27 01:26:10;;;;;;;4.50;3.30;;;12.80;93.80;;;;;;4976735;28;20417;-33
2024/03/27 01:28:37;;;;;;;5.17;3.40;;;12.80;93.80;;;;;;4960462;28;20441;-31
2024/03/27 01:31:03;;;;;;;4.77;3.40;;;12.80;93.80;;;;;;4974843;28;20963;-33
2024/03/27 01:33:29;;;;;;;4.10;3.40;;;12.80;93.80;;;;;;4976836;28;20927;-37
2024/03/27 01:35:58;;;;;;;3.63;3.33;;;12.80;93.80;;;;;;4970223;28;20530;-34
2024/03/27 01:38:27;;;;;;;5.53;4.20;;;12.80;93.70;;;;;;4979517;28;20580;-32
2024/03/27 01:40:55;;;;;;;6.20;4.50;;;12.80;93.70;;;;;;4959818;28;20545;-34
2024/03/27 01:43:21;;;;;;;3.83;3.43;;;12.80;93.70;;;;;;4975152;28;20430;-34
2024/03/27 01:45:47;;;;;;;5.77;4.23;;;12.80;93.70;;;;;;4982115;28;20426;-32
2024/03/27 01:48:14;;;;;;;5.53;4.03;;;12.80;93.70;;;;;;4977428;28;20468;-30
2024/03/27 01:50:42;;;;;;;5.07;3.93;;;12.70;93.60;;;;;;4977316;28;20889;-35
2024/03/27 01:53:10;;;;;;;5.77;3.90;;;12.70;93.70;;;;;;4982079;28;21210;-37
2024/03/27 01:55:37;;;;;;;4.73;3.80;;;12.70;93.70;;;;;;4981462;28;20493;-33
2024/03/27 01:58:05;;;;;;;4.97;4.47;;;12.70;93.70;;;;;;4981599;28;20457;-33
2024/03/27 02:00:34;;;;;;;6.57;4.27;;;12.70;93.70;;;;;;4979724;28;20524;-29
2024/03/27 02:03:00;;;;;;;7.83;4.17;;;12.70;93.60;;;;;;4981369;28;20449;-36
2024/03/27 02:05:27;;;;;;;6.63;3.87;;;12.70;93.60;;;;;;4981129;28;20418;-36
2024/03/27 02:07:55;;;;;;;6.27;3.70;;;12.70;93.60;;;;;;4981947;28;20441;-31
2024/03/27 02:10:21;;;;;;;6.20;3.80;;;12.70;93.60;;;;;;4977711;28;20521;-37
2024/03/27 02:12:47;;;;;;;6.13;3.60;;;12.70;93.70;;;;;;4947741;28;20429;-32
2024/03/27 02:15:14;;;;;;;4.57;3.47;;;12.70;93.70;;;;;;4979085;28;20469;-32
2024/03/27 02:17:40;;;;;;;5.30;3.77;;;12.70;93.70;;;;;;4980170;28;20469;-32
2024/03/27 02:20:06;;;;;;;4.50;3.70;;;12.70;93.70;;;;;;4980651;28;20539;-35
2024/03/27 02:22:36;;;;;;;4.00;3.43;;;12.70;93.70;;;;;;4979526;28;20434;-32
2024/03/27 02:25:28;;;;;;;4.33;3.63;;;12.70;93.80;;;;;;4980953;28;20448;-32
2024/03/27 02:27:54;;;;;;;5.33;4.00;;;12.70;93.70;;;;;;4953812;28;20464;-33
2024/03/27 02:30:19;;;;;;;4.97;3.47;;;12.70;93.60;;;;;;4981010;28;20426;-32
2024/03/27 02:32:46;;;;;;;4.60;4.07;;;12.70;93.60;;;;;;4979439;28;21034;-37
2024/03/27 02:35:14;;;;;;;6.33;3.40;;;12.70;93.60;;;;;;4975850;28;21033;-37
2024/03/27 02:37:43;;;;;;;4.70;3.80;;;12.70;93.60;;;;;;4979186;28;20461;-40
2024/03/27 02:40:10;;;;;;;5.40;3.83;;;12.70;93.70;;;;;;4980635;28;20460;-31
2024/03/27 02:42:35;;;;;;;5.77;3.50;;;12.70;93.60;;;;;;4980921;28;20453;-37
2024/03/27 02:45:02;;;;;;;5.53;3.97;;;12.60;93.60;;;;;;4981177;28;20484;-37
2024/03/27 02:47:31;;;;;;;3.80;3.10;;;12.60;93.70;;;;;;4979121;28;21060;-32
2024/03/27 02:49:57;;;;;;;3.83;3.50;;;12.60;93.70;;;;;;4979700;28;20439;-32
2024/03/27 02:52:28;;;;;;;3.80;3.40;;;12.60;93.60;;;;;;4978252;28;20552;-37
2024/03/27 02:54:54;;;;;;;5.17;3.57;;;12.60;93.50;;;;;;4975452;28;20480;-30
2024/03/27 02:57:23;;;;;;;5.30;3.30;;;12.60;93.60;;;;;;4977730;28;20977;-31
2024/03/27 02:59:51;;;;;;;4.07;3.10;;;12.60;93.60;;;;;;4980740;28;21201;-37
2024/03/27 03:02:17;;;;;;;4.47;3.27;;;12.60;93.60;;;;;;4979560;28;20458;-34
2024/03/27 03:04:45;;;;;;;3.03;2.60;;;12.60;93.70;;;;;;4974201;28;20441;-31
2024/03/27 03:07:11;;;;;;;4.27;3.87;;;12.60;93.70;;;;;;4979938;28;21408;-35
2024/03/27 03:09:40;;;;;;;4.10;2.73;;;12.60;93.80;;;;;;4978144;28;20587;-36
2024/03/27 03:12:06;;;;;;;3.30;2.80;;;12.60;93.80;;;;;;4979045;28;20850;-36
2024/03/27 03:14:34;;;;;;;4.30;2.93;;;12.60;93.90;;;;;;4978783;28;20475;-32
2024/03/27 03:17:02;;;;;;;3.80;3.20;;;12.60;93.90;;;;;;4980067;28;21350;-34
2024/03/27 03:19:28;;;;;;;3.90;2.90;;;12.50;93.90;;;;;;4946943;28;20437;-35
2024/03/27 03:21:55;;;;;;;3.83;2.80;;;12.50;94.20;;;;;;4980865;28;20522;-34
2024/03/27 03:24:21;;;;;;;4.00;2.40;;;12.50;93.90;;;;;;4980262;28;20806;-34
2024/03/27 03:26:47;;;;;;;3.83;2.80;;;12.50;94.00;;;;;;4962375;28;20453;-28
2024/03/27 03:29:13;;;;;;;3.50;2.20;;;12.50;94.00;;;;;;5062971;22;20506;-37
2024/03/27 03:31:39;;;;;;;4.63;2.80;;;12.50;94.10;;;;;;4995650;28;20451;-32
2024/03/27 03:34:08;;;;;;;3.20;2.57;;;12.50;94.10;;;;;;4995434;28;20472;-32
2024/03/27 03:36:36;;;;;;;3.47;2.80;;;12.50;94.10;;;;;;4997315;28;20428;-36
2024/03/27 03:39:04;;;;;;;4.37;3.10;;;12.50;94.10;;;;;;4998430;28;20543;-33
2024/03/27 03:41:35;;;;;;;3.70;2.20;;;12.50;94.20;;;;;;4992363;28;20518;-39
2024/03/27 03:44:01;;;;;;;4.07;2.97;;;12.50;94.30;;;;;;4979327;28;20444;-35
2024/03/27 03:46:27;;;;;;;4.73;2.50;;;12.50;94.30;;;;;;4997319;28;20432;-38
2024/03/27 03:48:53;;;;;;;2.93;2.57;;;12.50;94.30;;;;;;4996063;28;20479;-35
2024/03/27 03:51:19;;;;;;;3.43;2.70;;;12.50;94.30;;;;;;4997643;28;20503;-30
2024/03/27 03:53:48;;;;;;;3.10;2.80;;;12.40;94.30;;;;;;4998219;28;20429;-30
2024/03/27 03:56:19;;;;;;;4.63;2.57;;;12.40;94.30;;;;;;4997874;28;20526;-29
2024/03/27 03:58:45;;;;;;;2.67;1.97;;;12.40;94.40;;;;;;4977245;28;20561;-29
2024/03/27 04:01:11;;;;;;;2.87;2.40;;;12.40;94.40;;;;;;4994798;28;20450;-30
2024/03/27 04:03:37;;;;;;;2.70;2.50;;;12.40;94.40;;;;;;4997995;28;20508;-28
2024/03/27 04:06:03;;;;;;;4.17;2.93;;;12.40;94.50;;;;;;4997154;28;20518;-31
2024/03/27 04:08:29;;;;;;;3.37;2.70;;;12.40;94.50;;;;;;4999411;28;20209;-31
2024/03/27 04:10:56;;;;;;;2.60;2.40;;;12.40;94.60;;;;;;4997157;28;20432;-28
2024/03/27 04:13:24;;;;;;;2.50;2.30;;;12.40;94.60;;;;;;5000008;28;20811;-33
2024/03/27 04:15:52;;;;;;;3.10;2.50;;;12.40;94.50;;;;;;4997781;28;21127;-27
2024/03/27 04:18:18;;;;;;;4.20;2.20;;;12.40;94.60;;;;;;4981705;28;21027;-35
2024/03/27 04:20:44;;;;;;;4.77;2.70;;;12.40;94.60;;;;;;4999338;28;20502;-33
2024/03/27 04:23:11;;;;;;;4.10;2.77;;;12.40;94.60;;;;;;4981687;28;20436;-27
2024/03/27 04:25:46;;;;;;;2.73;2.43;;;12.30;94.50;;;;;;4999385;28;20463;-33
2024/03/27 04:28:12;;;;;;;2.23;2.03;;;12.40;94.50;;;;;;4999750;28;20472;-30
2024/03/27 04:30:41;;;;;;;2.70;2.50;;;12.30;94.40;;;;;;4964942;28;20551;-29
2024/03/27 04:33:09;;;;;;;3.60;2.40;;;12.30;94.50;;;;;;4999340;28;20429;-30
2024/03/27 04:35:39;;;;;;;3.10;2.27;;;12.30;94.50;;;;;;4998799;28;20479;-30
2024/03/27 04:38:08;;;;;;;5.63;2.80;;;12.30;94.50;;;;;;4998902;28;20453;-28
2024/03/27 04:40:34;;;;;;;3.23;2.60;;;12.30;94.70;;;;;;4992114;28;20443;-33
2024/03/27 04:43:00;;;;;;;4.07;2.50;;;12.30;94.70;;;;;;4998631;28;20790;-33
2024/03/27 04:45:26;;;;;;;2.33;2.13;;;12.30;94.80;;;;;;4998432;28;21249;-31
2024/03/27 04:47:52;;;;;;;2.63;1.90;;;12.30;94.80;;;;;;4997271;28;20451;-30
2024/03/27 04:50:18;;;;;;;3.60;2.13;;;12.30;94.70;;;;;;4999044;28;20424;-30
2024/03/27 04:52:44;;;;;;;2.77;1.83;;;12.30;94.70;;;;;;4997522;28;20540;-33
2024/03/27 04:55:10;;;;;;;6.60;2.73;;;12.30;94.80;;;;;;4998558;28;20531;-34
2024/03/27 04:57:36;;;;;;;3.77;2.30;;;12.30;94.80;;;;;;4998565;28;20452;-33
2024/03/27 05:00:02;;;;;;;2.83;2.17;;;12.30;94.80;;;;;;4995124;28;20576;-29
2024/03/27 05:02:28;;;;;;;2.93;1.90;;;12.30;94.80;;;;;;4997651;28;20495;-30
2024/03/27 05:04:54;;;;;;;3.30;2.20;;;12.20;94.80;;;;;;4996290;28;20476;-32
2024/03/27 05:07:20;;;;;;;2.33;2.13;;;12.20;94.80;;;;;;4985240;28;20435;-31
2024/03/27 05:09:48;;;;;;;2.67;2.20;;;12.20;94.80;;;;;;4998719;28;21377;-28
2024/03/27 05:12:17;;;;;;;2.67;2.10;;;12.20;94.80;;;;;;4998833;28;20456;-30
2024/03/27 05:14:45;;;;;;;2.40;2.20;;;12.20;94.90;;;;;;4995776;28;20480;-32
2024/03/27 05:17:12;;;;;;;2.80;2.20;;;12.20;94.90;;;;;;5002398;28;20420;-29
2024/03/27 05:19:39;;;;;;;2.90;2.40;;;12.20;94.90;;;;;;5002603;28;20430;-31
2024/03/27 05:22:05;;;;;;;5.23;2.23;;;12.20;94.90;;;;;;5002648;28;20448;-32
2024/03/27 05:24:34;;;;;;;2.77;2.53;;;12.20;94.90;;;;;;4998759;28;20467;-27
2024/03/27 05:27:02;;;;;;;2.30;2.10;;;12.20;94.90;;;;;;5000716;28;20463;-33
2024/03/27 05:29:28;;;;;;;3.00;2.20;;;12.20;95.00;;;;;;5001528;28;20457;-30
2024/03/27 05:32:00;;;;;;;2.87;2.13;;;12.20;95.00;;;;;;5000704;28;20433;-28
2024/03/27 05:34:26;;;;;;;4.10;2.60;;;12.20;95.00;;;;;;4999972;28;20213;-29
2024/03/27 05:36:54;;;;;;;3.17;2.20;;;12.20;95.10;;;;;;5000389;28;20425;-29
2024/03/27 05:39:20;;;;;;;2.50;2.30;;;12.20;95.10;;;;;;4998778;28;20441;-28
2024/03/27 05:41:49;;;;;;;2.70;2.50;;;12.20;95.10;;;;;;5008443;28;20841;-27
2024/03/27 05:44:15;;;;;;;2.60;2.40;;;12.20;95.10;;;;;;5001241;28;20448;-32
2024/03/27 05:46:46;;;;;;;2.53;2.33;;;12.20;95.20;;;;;;5001240;28;20448;-30
2024/03/27 05:49:14;;;;;;;3.10;2.33;;;12.20;95.20;;;;;;4999651;28;20903;-33
2024/03/27 05:51:44;;;;;;;2.40;2.10;;;12.20;95.20;;;;;;4994144;28;20503;-33
2024/03/27 05:54:12;;;;;;;2.23;2.03;;;12.20;95.20;;;;;;5001044;28;20472;-28
2024/03/27 05:56:38;;;;;;;2.80;2.40;;;12.20;95.30;;;;;;5005342;28;20433;-28
2024/03/27 05:59:04;;;;;;;2.47;2.10;;;12.20;95.30;;;;;;4989737;28;20445;-31
2024/03/27 06:01:30;;;;;;;2.57;2.10;;;12.20;95.30;;;;;;5000165;28;21239;-31
2024/03/27 06:03:57;;;;;;;3.53;2.03;;;12.20;95.30;;;;;;5000717;28;20216;-32
2024/03/27 06:06:23;;;;;;;2.97;2.23;;;12.20;95.30;;;;;;4998696;28;20441;-31
2024/03/27 06:08:54;;;;;;;2.50;2.30;;;12.20;95.40;;;;;;5000509;28;20515;-30
2024/03/27 06:11:23;;;;;;;2.83;2.27;;;12.20;95.40;;;;;;5000254;28;20440;-32
2024/03/27 06:13:49;;;;;;;2.60;2.20;;;12.20;95.40;;;;;;5000201;28;20439;-31
2024/03/27 06:16:16;;;;;;;2.57;2.30;;;12.20;95.40;;;;;;4998812;28;20424;-27
2024/03/27 06:18:44;;;;;;;2.23;2.03;;;12.20;95.50;;;;;;4999871;28;20449;-29
2024/03/27 06:21:10;;;;;;;4.20;2.27;;;12.10;95.40;;;;;;4964314;28;20428;-31
2024/03/27 06:23:38;;;;;;;2.50;1.90;;;12.10;95.50;;;;;;4999456;28;20772;-31
2024/03/27 06:26:04;;;;;;;3.67;2.60;;;12.10;95.50;;;;;;5000297;28;20437;-32
2024/03/27 06:28:30;;;;;;;2.73;2.40;;;12.20;95.60;;;;;;4999715;28;21289;-30
2024/03/27 06:30:59;;;;;;;2.87;2.20;;;12.10;95.60;;;;;;5003349;28;20429;-28
2024/03/27 06:33:25;;;;;;;2.53;2.23;;;12.20;95.70;;;;;;4998075;28;20494;-36
2024/03/27 06:35:53;;;;;;;2.73;2.00;;;12.10;95.60;;;;;;4998469;28;20551;-35
2024/03/27 06:38:20;;;;;;;3.20;2.20;;;12.10;95.60;;;;;;4999062;28;20976;-35
2024/03/27 06:40:46;;;;;;;2.20;2.00;;;12.10;95.70;;;;;;4997457;28;20425;-34
2024/03/27 06:43:13;;;;;;;3.07;2.20;;;12.10;95.70;;;;;;4996057;28;21452;-35
2024/03/27 06:45:41;;;;;;;2.80;2.50;;;12.10;95.70;;;;;;4998535;28;20432;-33
2024/03/27 06:48:07;;;;;;;2.50;2.30;;;12.10;95.70;;;;;;4996621;28;20441;-38
2024/03/27 06:50:33;;;;;;;2.47;2.20;;;12.10;95.80;;;;;;4995708;28;20856;-33
2024/03/27 06:52:59;;;;;;;5.07;2.50;;;12.10;95.90;;;;;;4998227;28;20438;-34
2024/03/27 06:55:25;;;;;;;3.30;2.10;;;12.10;95.90;;;;;;4998316;28;20815;-38
2024/03/27 06:57:55;;;;;;;2.90;2.03;;;12.10;95.90;;;;;;4997266;28;20537;-40
2024/03/27 07:00:27;;;;;;;2.40;1.93;;;12.10;95.90;;;;;;4996852;28;20436;-36
2024/03/27 07:02:53;;;;;;;3.13;2.30;;;12.10;95.90;;;;;;4997639;28;20444;-37
2024/03/27 07:05:19;;;;;;;2.20;2.00;;;12.10;95.90;;;;;;4997104;28;20453;-39
2024/03/27 07:07:45;;;;;;;2.70;2.40;;;12.10;96.00;;;;;;4998014;28;20443;-36
2024/03/27 07:10:11;;;;;;;2.23;2.03;;;12.10;96.00;;;;;;4997196;28;20588;-34
2024/03/27 07:12:39;;;;;;;2.50;2.27;;;12.10;96.00;;;;;;4998651;28;20499;-38
2024/03/27 07:15:06;;;;;;;3.30;2.40;;;12.10;96.10;;;;;;4997181;28;20567;-35
2024/03/27 07:17:32;;;;;;;3.20;2.40;;;12.10;96.20;;;;;;4996044;28;20457;-36
2024/03/27 07:20:00;;;;;;;2.30;2.10;;;12.10;96.30;;;;;;4993212;28;21139;-39
2024/03/27 07:22:29;;;;;;;2.53;2.33;;;12.10;96.30;;;;;;4993901;28;20583;-35
2024/03/27 07:24:55;;;;;;;3.57;2.40;;;12.10;96.40;;;;;;4993700;28;20463;-32
2024/03/27 07:27:21;;;;;;;2.40;2.20;;;12.10;96.40;;;;;;4994419;28;20814;-32
2024/03/27 07:29:49;;;;;;;2.40;1.93;;;12.10;96.60;;;;;;4994772;28;20455;-38
2024/03/27 07:32:15;;;;;;;2.30;1.87;;;12.10;96.60;;;;;;4995879;28;21149;-33
2024/03/27 07:34:41;;;;;;;3.07;2.70;;;12.10;96.60;;;;;;4999659;28;20488;-30
2024/03/27 07:37:10;;;;;;;2.73;2.30;;;12.20;96.70;;;;;;4997045;28;20421;-33
2024/03/27 07:39:36;;;;;;;2.83;2.27;;;12.10;96.80;;;;;;4996972;28;20756;-31
2024/03/27 07:42:02;;;;;;;2.20;1.97;;;12.10;96.90;;;;;;4996038;28;20431;-38
2024/03/27 07:44:28;;;;;;;3.20;2.07;;;12.10;97.00;;;;;;4992918;28;20433;-34
2024/03/27 07:46:54;;;;;;;2.73;2.07;;;12.10;97.00;;;;;;4996330;28;20505;-33
2024/03/27 07:49:20;;;;;;;2.93;2.03;;;12.10;97.00;;;;;;4992667;28;20591;-36
2024/03/27 07:51:46;;;;;;;2.17;1.87;;;12.10;97.10;;;;;;4997335;28;20209;-32
2024/03/27 07:54:12;;;;;;;1.90;1.80;;;12.10;97.10;;;;;;4996291;28;20468;-33
2024/03/27 07:56:43;;;;;;;2.47;2.27;;;12.10;97.00;;;;;;4994873;28;20527;-36
2024/03/27 07:59:14;;;;;;;2.67;2.23;;;12.10;97.10;;;;;;4994473;28;20440;-32
2024/03/27 08:01:42;;;;;;;2.00;1.80;;;12.10;97.10;;;;;;4997458;28;20429;-33
2024/03/27 08:04:08;;;;;;;3.07;1.87;;;12.10;97.20;;;;;;4996655;28;20806;-36
2024/03/27 08:06:34;;;;;;;2.27;1.80;;;12.10;97.20;;;;;;4992605;28;20452;-33
2024/03/27 08:09:01;;;;;;;2.13;1.87;;;12.10;97.20;;;;;;4978601;28;20440;-39
2024/03/27 08:11:30;;;;;;;1.70;1.60;;;12.10;97.20;;;;;;4996197;28;20445;-32
2024/03/27 08:14:04;;;;;;;3.10;1.90;;;12.10;97.20;;;;;;4978575;28;20428;-35
2024/03/27 08:16:31;;;;;;;2.50;1.77;;;12.10;97.20;;;;;;4995697;28;20436;-37
2024/03/27 08:18:57;;;;;;;2.60;1.80;;;12.10;97.20;;;;;;4997256;28;20440;-38
2024/03/27 08:21:23;;;;;;;2.50;1.70;;;12.10;97.20;;;;;;4997249;28;20489;-33
2024/03/27 08:23:50;;;;;;;2.60;1.87;;;12.10;97.10;;;;;;4994775;28;21240;-37
2024/03/27 08:26:19;;;;;;;2.23;1.73;;;12.10;97.20;;;;;;4995439;28;20986;-38
2024/03/27 08:28:45;;;;;;;2.93;2.00;;;12.10;97.20;;;;;;5006318;28;20849;-36
2024/03/27 08:31:12;;;;;;;2.00;1.70;;;12.10;97.20;;;;;;4995889;28;20426;-34
2024/03/27 08:33:38;;;;;;;2.40;1.60;;;12.20;97.20;;;;;;4996529;28;20469;-33
2024/03/27 08:36:05;;;;;;;2.53;2.10;;;12.20;97.20;;;;;;4995695;28;20623;-37
2024/03/27 08:38:30;;;;;;;1.73;1.60;;;12.10;97.20;;;;;;4996326;28;20984;-38
2024/03/27 08:40:58;;;;;;;1.80;1.30;;;12.20;97.30;;;;;;4993397;28;20448;-34
2024/03/27 08:43:28;;;;;;;2.83;1.60;;;12.20;97.30;;;;;;4995620;28;20428;-35
2024/03/27 08:45:54;;;;;;;1.40;1.30;;;12.20;97.30;;;;;;4995798;28;20526;-33
2024/03/27 08:48:22;;;;;;;2.67;1.43;;;12.20;97.30;;;;;;4998624;28;20451;-36
2024/03/27 08:50:48;;;;;;;1.67;1.40;;;12.20;97.30;;;;;;5010168;28;20863;-34
2024/03/27 08:53:18;;;;;;;1.97;1.60;;;12.20;97.30;;;;;;4999041;28;20448;-36
2024/03/27 08:55:44;;;;;;;1.70;1.60;;;12.20;97.30;;;;;;5001001;28;20506;-36
2024/03/27 08:58:10;;;;;;;2.30;1.73;;;12.20;97.30;;;;;;4998651;28;20473;-33
2024/03/27 09:00:41;;;;;;;3.90;1.97;;;12.20;97.30;;;;;;5001143;28;20519;-36
2024/03/27 09:03:10;;;;;;;2.80;1.43;;;12.20;97.30;;;;;;4997913;28;20424;-39
2024/03/27 09:05:36;;;;;;;1.70;1.57;;;12.20;97.40;;;;;;4997621;28;20432;-37
2024/03/27 09:08:03;;;;;;;1.80;1.50;;;12.20;97.40;;;;;;4998820;28;21929;-37
2024/03/27 09:10:30;;;;;;;1.80;1.60;;;12.20;97.40;;;;;;5000577;28;20467;-36
2024/03/27 09:12:56;;;;;;;1.90;1.80;;;12.20;97.40;;;;;;4997880;28;20498;-33
2024/03/27 09:15:22;;;;;;;2.07;1.60;;;12.20;97.40;;;;;;5000329;28;20472;-38
2024/03/27 09:17:50;;;;;;;1.70;1.60;;;12.20;97.50;;;;;;4982918;28;21339;-33
2024/03/27 09:20:16;;;;;;;1.50;1.40;;;12.20;97.50;;;;;;5000270;28;20434;-34
2024/03/27 09:22:42;;;;;;;1.90;1.70;;;12.20;97.60;;;;;;4996785;28;20467;-37
2024/03/27 09:25:08;;;;;;;2.10;1.77;;;12.30;97.60;;;;;;4999014;28;20427;-38
2024/03/27 09:30:16;;;;;;;2.63;1.57;;;12.30;97.60;;;;;;4977141;28;20529;-38
2024/03/27 09:32:45;;;;;;;1.53;1.40;;;12.30;97.70;;;;;;4977965;28;20429;-29
2024/03/27 09:35:13;;;;;;;2.50;1.87;;;12.30;97.70;;;;;;4979235;28;20481;-31
2024/03/27 09:37:41;;;;;;;2.23;1.83;;;12.30;97.80;;;;;;4977545;28;20469;-34
2024/03/27 09:40:10;;;;;;;1.83;1.73;;;12.30;97.80;;;;;;4978920;28;20456;-32
2024/03/27 09:42:37;;;;;;;4.00;1.77;;;12.30;97.90;;;;;;4978551;28;20442;-36
2024/03/27 09:45:03;;;;;;;1.87;1.77;;;12.30;97.80;;;;;;4993723;28;20432;-34
2024/03/27 09:47:35;;;;;;;2.40;2.20;;;12.30;97.90;;;;;;4977754;28;21287;-37
2024/03/27 09:50:05;;;;;;;2.23;2.03;;;12.40;98.00;;;;;;4977608;28;21015;-33
2024/03/27 09:52:36;;;;;;;2.97;2.27;;;12.30;97.90;;;;;;4977807;28;20512;-34
2024/03/27 09:55:05;;;;;;;2.23;2.00;;;12.40;97.90;;;;;;4944064;28;21015;-34
2024/03/27 09:57:31;;;;;;;2.70;2.50;;;12.40;97.90;;;;;;4982034;28;20467;-32
2024/03/27 09:59:59;;;;;;;2.10;1.90;;;12.40;98.00;;;;;;4977877;28;20433;-33
2024/03/27 10:02:26;;;;;;;1.87;1.67;;;12.40;98.30;;;;;;4977086;28;20437;-36
2024/03/27 10:04:55;;;;;;;2.03;1.83;;;12.40;97.90;;;;;;4960238;28;20461;-36
2024/03/27 10:07:25;;;;;;;3.70;2.27;;;12.40;97.80;;;;;;4976829;28;20433;-33
2024/03/27 10:09:53;;;;;;;3.03;1.83;;;12.40;97.80;;;;;;4978342;28;20462;-34
2024/03/27 10:12:19;;;;;;;2.50;2.20;;;12.40;97.90;;;;;;4979839;28;20948;-31
2024/03/27 10:14:45;;;;;;;2.93;1.80;;;12.40;97.90;;;;;;4977116;28;20495;-33
2024/03/27 10:17:11;;;;;;;2.47;2.10;;;12.40;98.00;;;;;;4980092;28;20445;-32
2024/03/27 10:19:38;;;;;;;1.53;1.43;;;12.40;97.90;;;;;;4961670;28;20446;-33
2024/03/27 10:22:04;;;;;;;3.30;2.00;;;12.40;97.90;;;;;;4979626;28;20427;-36
2024/03/27 10:24:31;;;;;;;1.93;1.83;;;12.40;97.90;;;;;;4976692;28;20515;-32
2024/03/27 10:26:57;;;;;;;1.80;1.70;;;12.50;97.90;;;;;;4978898;28;20952;-36
2024/03/27 10:29:25;;;;;;;2.27;1.90;;;12.50;98.00;;;;;;4976927;28;20599;-36
2024/03/27 10:31:53;;;;;;;2.10;1.57;;;12.50;97.90;;;;;;4977759;28;20537;-30
2024/03/27 10:34:22;;;;;;;2.60;2.10;;;12.50;98.00;;;;;;4977062;28;21368;-34
2024/03/27 10:36:50;;;;;;;1.83;1.73;;;12.50;98.00;;;;;;4975441;28;20477;-33
2024/03/27 10:39:17;;;;;;;3.03;1.60;;;12.50;98.00;;;;;;4978827;28;20560;-34
2024/03/27 10:41:43;;;;;;;1.70;1.60;;;12.50;98.10;;;;;;4980340;28;20436;-33
2024/03/27 10:44:11;;;;;;;2.43;2.20;;;12.50;98.10;;;;;;4979768;28;20557;-30
2024/03/27 10:46:40;;;;;;;2.40;2.00;;;12.50;98.00;;;;;;4962517;28;20472;-37
2024/03/27 10:49:11;;;;;;;2.00;1.80;;;12.50;98.00;;;;;;4962197;28;20495;-33
2024/03/27 10:51:43;;;;;;;2.33;2.07;;;12.50;98.10;;;;;;4979420;28;20475;-34
2024/03/27 10:54:09;;;;;;;3.10;2.57;;;12.50;98.20;;;;;;4946186;28;20949;-32
2024/03/27 10:56:36;;;;;;;2.73;2.30;;;12.50;98.20;;;;;;4985566;28;20941;-30
2024/03/27 10:59:04;;;;;;;3.60;2.87;;;12.50;98.30;;;;;;4983186;28;20449;-31
2024/03/27 11:01:30;;;;;;;2.57;2.10;;;12.50;98.30;;;;;;4944208;28;20451;-25
2024/03/27 11:03:58;;;;;;;3.07;2.77;;;12.50;98.40;;;;;;4959978;28;20419;-29
2024/03/27 11:06:25;;;;;;;3.23;2.70;;;12.50;98.50;;;;;;4977586;28;20960;-28
2024/03/27 11:08:51;;;;;;;3.57;2.67;;;12.50;98.60;;;;;;4979277;28;20469;-28
2024/03/27 11:11:20;;;;;;;2.77;2.57;;;12.50;98.70;;;;;;4981301;28;20452;-29
2024/03/27 11:13:51;;;;;;;3.43;2.97;;;12.50;98.80;;;;;;4963088;28;20962;-32
2024/03/27 11:16:24;;;;;;;5.07;3.07;;;12.60;99.00;;;;;;4980811;28;20762;-32
2024/03/27 11:18:52;;;;;;;3.10;2.80;;;12.50;99.30;;;;;;4946670;28;20475;-33
2024/03/27 11:21:18;;;;;;;4.30;3.90;;;12.60;99.50;;;;;;4947184;28;21243;-29
2024/03/27 11:23:50;;;;;;;4.33;3.60;;;12.50;99.40;;;;;;4979572;28;20583;-31
2024/03/27 11:26:30;;;;;;;4.00;3.60;;;12.60;99.80;;;;;;4979597;28;20426;-31
2024/03/27 11:28:57;;;;;;;3.80;3.40;;;12.50;99.90;;;;;;4980858;28;20571;-31
2024/03/27 11:31:23;;;;;;;4.87;4.47;;;12.50;99.90;;;;;;4979444;28;20528;-34
2024/03/27 11:33:51;;;;;;;5.17;4.17;;;12.50;99.90;;;;;;4981158;28;21031;-36
2024/03/27 11:36:25;;;;;;;5.33;4.60;;;12.50;99.90;;;;;;4979081;28;20669;-31
2024/03/27 11:38:54;;;;;;;4.87;4.17;;;12.50;99.90;;;;;;4980767;28;20437;-32
2024/03/27 11:41:22;;;;;;;4.90;4.50;;;12.50;99.90;;;;;;4962842;28;20446;-33
2024/03/27 11:43:50;;;;;;;6.07;4.37;;;12.50;99.90;;;;;;4962817;28;20441;-34
2024/03/27 11:46:17;;;;;;;5.00;4.60;;;12.50;99.90;;;;;;4980826;28;20492;-30
2024/03/27 11:48:45;;;;;;;7.67;4.80;;;12.50;99.90;;;;;;4980683;28;20883;-35
2024/03/27 11:51:14;;;;;;;4.40;4.00;;;12.50;99.90;;;;;;4978952;28;20441;-35
2024/03/27 11:53:44;;;;;;;5.00;4.50;;;12.50;99.90;;;;;;4978217;28;21033;-27
2024/03/27 11:56:10;;;;;;;5.10;4.60;;;12.50;99.90;;;;;;4979989;28;20473;-32
2024/03/27 11:58:38;;;;;;;5.33;4.83;;;12.50;99.90;;;;;;4969115;28;20528;-29
2024/03/27 12:01:05;;;;;;;5.23;4.60;;;12.50;99.90;;;;;;4979667;28;20451;-37
2024/03/27 12:03:31;;;;;;;5.30;4.57;;;12.50;99.90;;;;;;4984918;28;20409;-31
2024/03/27 12:05:59;;;;;;;4.83;3.90;;;12.50;99.90;;;;;;4980069;28;21003;-29
2024/03/27 12:08:25;;;;;;;4.47;4.07;;;12.50;99.90;;;;;;4979686;28;20566;-30
2024/03/27 12:10:51;;;;;;;4.40;4.00;;;12.50;99.90;;;;;;4978899;28;20860;-32
2024/03/27 12:13:20;;;;;;;4.07;3.67;;;12.50;99.90;;;;;;4993416;28;20430;-28
2024/03/27 12:15:47;;;;;;;3.80;3.43;;;12.50;99.90;;;;;;4978858;28;21118;-27
2024/03/27 12:18:12;;;;;;;3.90;3.50;;;12.50;99.90;;;;;;4979194;28;20464;-31
2024/03/27 12:20:39;;;;;;;3.30;3.00;;;12.50;99.90;;;;;;4978742;28;20427;-31
2024/03/27 12:23:08;;;;;;;3.93;3.50;;;12.50;99.90;;;;;;4977583;28;20429;-27
2024/03/27 12:25:34;;;;;;;3.70;2.87;;;12.50;99.90;;;;;;4979609;28;20444;-28
2024/03/27 12:28:06;;;;;;;3.27;2.97;;;12.50;99.90;;;;;;4977904;28;20446;-26
2024/03/27 12:30:39;;;;;;;3.13;2.87;;;12.50;99.90;;;;;;4978024;28;20468;-26
2024/03/27 12:33:05;;;;;;;3.43;3.07;;;12.50;99.90;;;;;;4978653;28;21196;-28
2024/03/27 12:35:32;;;;;;;3.20;2.90;;;12.50;99.90;;;;;;4993172;28;21032;-30
2024/03/27 12:37:58;;;;;;;4.10;3.43;;;12.50;99.90;;;;;;4992969;28;20536;-29
2024/03/27 12:40:24;;;;;;;3.90;3.60;;;12.50;99.90;;;;;;4977688;28;20444;-31
2024/03/27 12:42:51;;;;;;;3.90;3.50;;;12.50;99.90;;;;;;4978544;28;21274;-26
2024/03/27 12:45:18;;;;;;;3.57;3.27;;;12.50;99.90;;;;;;4977698;28;20426;-28
2024/03/27 12:47:46;;;;;;;4.60;3.30;;;12.50;99.90;;;;;;4976342;28;21440;-28
2024/03/27 12:50:17;;;;;;;3.60;3.30;;;12.50;99.90;;;;;;4982082;28;20549;-32